createdAt,value
2018-06-24T00:01:27.803Z,7.03
2018-06-24T00:03:56.038Z,6.87
2018-06-24T00:06:24.243Z,8.87
2018-06-24T00:08:52.593Z,7.27
2018-06-24T00:11:20.818Z,7.33
2018-06-24T00:13:49.102Z,7.57
2018-06-24T00:16:17.336Z,5.90
2018-06-24T00:18:45.869Z,4.83
2018-06-24T00:21:14.101Z,5.77
2018-06-24T00:23:42.329Z,4.90
2018-06-24T00:26:10.560Z,9.47
2018-06-24T00:28:38.796Z,5.57
2018-06-24T00:31:07.038Z,7.27
2018-06-24T00:33:35.295Z,10.10
2018-06-24T00:36:03.542Z,7.23
2018-06-24T00:38:31.753Z,6.57
2018-06-24T00:41:00.109Z,6.53
2018-06-24T00:43:28.324Z,5.73
2018-06-24T00:45:56.541Z,6.13
2018-06-24T00:48:24.816Z,10.77
2018-06-24T00:50:53.129Z,5.43
2018-06-24T00:53:21.357Z,4.37
2018-06-24T00:55:49.573Z,7.57
2018-06-24T00:58:17.864Z,6.67
2018-06-24T01:00:46.113Z,6.27
2018-06-24T01:03:14.369Z,10.03
2018-06-24T01:05:42.597Z,5.37
2018-06-24T01:08:10.816Z,8.90
2018-06-24T01:10:39.076Z,7.67
2018-06-24T01:13:07.362Z,7.33
2018-06-24T01:15:35.646Z,6.60
2018-06-24T01:18:03.909Z,6.23
2018-06-24T01:20:32.200Z,6.20
2018-06-24T01:23:00.505Z,7.13
2018-06-24T01:25:28.729Z,7.07
2018-06-24T01:27:57.048Z,8.83
2018-06-24T01:30:25.248Z,7.90
2018-06-24T01:32:53.497Z,8.23
2018-06-24T01:35:21.832Z,9.00
2018-06-24T01:37:50.088Z,7.03
2018-06-24T01:40:18.351Z,8.67
2018-06-24T01:42:46.650Z,9.97
2018-06-24T01:45:14.879Z,8.37
2018-06-24T01:47:43.090Z,7.93
2018-06-24T01:50:11.349Z,8.13
2018-06-24T01:52:39.626Z,8.90
2018-06-24T01:55:07.897Z,9.43
2018-06-24T01:57:36.168Z,7.90
2018-06-24T02:00:04.800Z,9.47
2018-06-24T02:02:33.017Z,7.60
2018-06-24T02:05:01.787Z,7.33
2018-06-24T02:07:30.038Z,9.07
2018-06-24T02:09:58.252Z,11.87
2018-06-24T02:12:26.489Z,13.83
2018-06-24T02:14:54.728Z,9.13
2018-06-24T02:17:22.944Z,6.40
2018-06-24T02:19:51.231Z,7.53
2018-06-24T02:22:19.435Z,8.90
2018-06-24T02:24:47.663Z,8.90
2018-06-24T02:27:15.876Z,7.27
2018-06-24T02:29:44.101Z,8.33
2018-06-24T02:32:12.360Z,7.30
2018-06-24T02:34:40.587Z,8.83
2018-06-24T02:37:08.831Z,8.17
2018-06-24T02:39:37.086Z,8.27
2018-06-24T02:42:05.420Z,8.33
2018-06-24T02:44:33.662Z,9.20
2018-06-24T02:47:01.910Z,9.73
2018-06-24T02:49:30.226Z,7.20
2018-06-24T02:51:58.449Z,8.23
2018-06-24T02:54:26.737Z,9.83
2018-06-24T02:56:55.026Z,10.07
2018-06-24T02:59:23.248Z,7.00
2018-06-24T03:01:51.456Z,8.27
2018-06-24T03:04:19.726Z,8.37
2018-06-24T03:06:48.021Z,6.60
2018-06-24T03:09:16.285Z,7.13
2018-06-24T03:11:44.492Z,8.23
2018-06-24T03:14:12.701Z,9.13
2018-06-24T03:16:40.957Z,8.47
2018-06-24T03:19:09.233Z,6.17
2018-06-24T03:21:37.472Z,11.07
2018-06-24T03:24:06.066Z,8.10
2018-06-24T03:26:34.315Z,6.77
2018-06-24T03:29:02.509Z,8.30
2018-06-24T03:31:30.758Z,7.83
2018-06-24T03:33:59.019Z,5.60
2018-06-24T03:36:27.258Z,6.53
2018-06-24T03:38:55.476Z,8.93
2018-06-24T03:41:23.793Z,7.00
2018-06-24T03:43:52.002Z,7.27
2018-06-24T03:46:20.271Z,9.63
2018-06-24T03:48:48.533Z,9.03
2018-06-24T03:51:16.857Z,8.43
2018-06-24T03:53:45.086Z,8.00
2018-06-24T03:56:13.320Z,8.47
2018-06-24T03:58:41.545Z,8.47
2018-06-24T04:01:09.881Z,6.53
2018-06-24T04:03:38.211Z,8.67
2018-06-24T04:06:06.454Z,7.63
2018-06-24T04:08:34.720Z,9.10
2018-06-24T04:11:02.985Z,7.33
2018-06-24T04:13:31.196Z,8.07
2018-06-24T04:16:07.461Z,9.00
2018-06-24T04:18:43.629Z,10.53
2018-06-24T04:21:13.864Z,9.57
2018-06-24T04:23:43.375Z,8.10
2018-06-24T04:26:11.969Z,8.30
2018-06-24T04:28:40.482Z,9.47
2018-06-24T04:31:09.694Z,13.40
2018-06-24T04:33:37.904Z,15.33
2018-06-24T04:36:06.469Z,14.77
2018-06-24T04:38:34.767Z,14.17
2018-06-24T04:41:03.193Z,12.63
2018-06-24T04:43:31.513Z,13.40
2018-06-24T04:46:01.427Z,16.00
2018-06-24T04:48:29.785Z,16.00
2018-06-24T04:50:58.045Z,19.57
2018-06-24T04:53:26.260Z,14.97
2018-06-24T04:55:54.534Z,15.77
2018-06-24T04:58:22.816Z,14.83
2018-06-24T05:00:51.143Z,14.53
2018-06-24T05:03:19.364Z,20.77
2018-06-24T05:05:47.639Z,16.70
2018-06-24T05:08:15.924Z,15.87
2018-06-24T05:10:44.646Z,17.80
2018-06-24T05:13:12.985Z,15.47
2018-06-24T05:15:41.274Z,18.83
2018-06-24T05:18:09.545Z,17.63
2018-06-24T05:20:37.796Z,14.50
2018-06-24T05:23:06.068Z,17.73
2018-06-24T05:25:34.385Z,13.90
2018-06-24T05:28:02.621Z,17.17
2018-06-24T05:30:30.878Z,15.87
2018-06-24T05:32:59.637Z,15.13
2018-06-24T05:35:27.920Z,16.10
2018-06-24T05:37:56.209Z,19.40
2018-06-24T05:40:24.469Z,19.00
2018-06-24T05:42:52.803Z,17.30
2018-06-24T05:45:21.028Z,15.47
2018-06-24T05:47:49.401Z,12.97
2018-06-24T05:50:17.644Z,14.43
2018-06-24T05:52:45.901Z,16.07
2018-06-24T05:55:14.199Z,15.47
2018-06-24T05:57:42.422Z,13.03
2018-06-24T06:00:16.222Z,15.47
2018-06-24T06:02:44.541Z,15.90
2018-06-24T06:05:12.788Z,14.90
2018-06-24T06:07:41.030Z,16.37
2018-06-24T06:10:09.372Z,14.53
2018-06-24T06:12:37.689Z,13.90
2018-06-24T06:15:06.010Z,12.73
2018-06-24T06:17:34.221Z,15.37
2018-06-24T06:20:02.495Z,13.10
2018-06-24T06:22:30.709Z,13.23
2018-06-24T06:24:59.152Z,14.03
2018-06-24T06:27:27.417Z,10.27
2018-06-24T06:29:55.685Z,10.97
2018-06-24T06:32:23.953Z,10.67
2018-06-24T06:34:52.219Z,11.10
2018-06-24T06:37:20.454Z,10.90
2018-06-24T06:39:48.743Z,12.97
2018-06-24T06:42:16.956Z,9.50
2018-06-24T06:44:45.216Z,9.63
2018-06-24T06:47:13.509Z,8.90
2018-06-24T06:49:41.818Z,11.57
2018-06-24T06:52:10.095Z,11.63
2018-06-24T06:54:38.620Z,10.23
2018-06-24T06:57:07.836Z,10.53
2018-06-24T06:59:36.064Z,10.73
2018-06-24T07:02:04.345Z,11.83
2018-06-24T07:04:32.601Z,9.30
2018-06-24T07:07:00.936Z,10.17
2018-06-24T07:09:29.220Z,9.77
2018-06-24T07:11:57.467Z,8.33
2018-06-24T07:14:25.721Z,7.80
2018-06-24T07:16:54.093Z,7.73
2018-06-24T07:19:22.353Z,8.53
2018-06-24T07:21:50.624Z,9.10
2018-06-24T07:24:18.874Z,7.50
2018-06-24T07:26:47.085Z,11.77
2018-06-24T07:29:15.333Z,10.00
2018-06-24T07:31:43.601Z,9.80
2018-06-24T07:34:11.876Z,7.17
2018-06-24T07:36:40.099Z,7.93
2018-06-24T07:39:09.984Z,7.60
2018-06-24T07:41:38.216Z,6.27
2018-06-24T07:44:06.452Z,9.57
2018-06-24T07:46:34.804Z,9.57
2018-06-24T07:49:03.085Z,9.07
2018-06-24T07:51:31.337Z,6.63
2018-06-24T07:53:59.607Z,9.03
2018-06-24T07:56:27.928Z,9.50
2018-06-24T07:58:56.157Z,7.70
2018-06-24T08:01:24.505Z,8.23
2018-06-24T08:03:52.757Z,5.43
2018-06-24T08:06:20.976Z,8.60
2018-06-24T08:08:49.257Z,8.17
2018-06-24T08:11:17.495Z,8.87
2018-06-24T08:13:45.700Z,10.60
2018-06-24T08:16:13.961Z,8.60
2018-06-24T08:18:42.197Z,13.10
2018-06-24T08:21:10.450Z,9.30
2018-06-24T08:23:38.632Z,8.70
2018-06-24T08:26:07.013Z,11.63
2018-06-24T08:28:35.236Z,9.37
2018-06-24T08:31:03.533Z,12.23
2018-06-24T08:33:31.801Z,8.03
2018-06-24T08:36:00.019Z,11.10
2018-06-24T08:38:28.276Z,12.37
2018-06-24T08:40:56.533Z,12.53
2018-06-24T08:43:24.781Z,9.10
2018-06-24T08:45:53.043Z,9.97
2018-06-24T08:48:21.318Z,7.70
2018-06-24T08:50:49.552Z,11.50
2018-06-24T08:53:17.921Z,9.90
2018-06-24T08:55:46.261Z,11.13
2018-06-24T08:58:14.488Z,9.33
2018-06-24T09:00:42.776Z,11.70
2018-06-24T09:03:10.959Z,9.60
2018-06-24T09:05:39.208Z,7.97
2018-06-24T09:08:07.477Z,8.03
2018-06-24T09:10:35.768Z,10.43
2018-06-24T09:13:04.021Z,10.40
2018-06-24T09:15:32.296Z,11.23
2018-06-24T09:18:00.591Z,11.07
2018-06-24T09:20:28.813Z,10.33
2018-06-24T09:22:57.068Z,11.47
2018-06-24T09:25:25.332Z,11.60
2018-06-24T09:27:53.632Z,12.20
2018-06-24T09:30:21.849Z,14.03
2018-06-24T09:32:50.109Z,13.20
2018-06-24T09:35:18.378Z,13.70
2018-06-24T09:37:46.600Z,9.53
2018-06-24T09:40:14.848Z,12.03
2018-06-24T09:42:43.170Z,11.33
2018-06-24T09:45:11.463Z,13.83
2018-06-24T09:47:39.693Z,10.07
2018-06-24T09:50:08.324Z,12.37
2018-06-24T09:52:36.633Z,9.23
2018-06-24T09:55:04.915Z,10.07
2018-06-24T09:57:33.195Z,7.67
2018-06-24T10:00:01.433Z,8.40
2018-06-24T10:02:29.736Z,10.80
2018-06-24T10:04:58.009Z,10.53
2018-06-24T10:07:26.281Z,10.10
2018-06-24T10:09:54.532Z,7.80
2018-06-24T10:12:22.819Z,9.73
2018-06-24T10:14:51.048Z,9.50
2018-06-24T10:17:19.257Z,10.30
2018-06-24T10:19:47.478Z,9.17
2018-06-24T10:22:15.762Z,16.87
2018-06-24T10:24:44.004Z,8.13
2018-06-24T10:27:12.274Z,7.17
2018-06-24T10:29:40.672Z,9.30
2018-06-24T10:32:08.910Z,6.40
2018-06-24T10:34:37.212Z,7.77
2018-06-24T10:37:05.528Z,12.87
2018-06-24T10:39:33.757Z,7.70
2018-06-24T10:42:02.013Z,5.83
2018-06-24T10:44:30.258Z,6.90
2018-06-24T10:46:58.589Z,6.87
2018-06-24T10:49:26.924Z,4.87
2018-06-24T10:51:55.233Z,6.10
2018-06-24T10:54:23.446Z,8.03
2018-06-24T10:56:51.701Z,3.43
2018-06-24T10:59:19.918Z,6.57
2018-06-24T11:01:48.277Z,7.70
2018-06-24T11:04:16.626Z,10.03
2018-06-24T11:06:44.873Z,5.80
2018-06-24T11:09:13.073Z,4.23
2018-06-24T11:11:41.372Z,9.90
2018-06-24T11:14:09.651Z,8.40
2018-06-24T11:16:38.132Z,7.83
2018-06-24T11:19:06.504Z,6.57
2018-06-24T11:21:34.769Z,5.77
2018-06-24T11:24:03.113Z,4.90
2018-06-24T11:26:31.345Z,3.23
2018-06-24T11:28:59.628Z,5.37
2018-06-24T11:31:27.889Z,5.73
2018-06-24T11:33:56.140Z,5.80
2018-06-24T11:36:24.403Z,3.93
2018-06-24T11:38:52.616Z,6.47
2018-06-24T11:41:20.865Z,3.50
2018-06-24T11:43:49.105Z,4.03
2018-06-24T11:46:17.404Z,3.83
2018-06-24T11:48:45.693Z,2.33
2018-06-24T11:51:13.916Z,5.67
2018-06-24T11:53:42.181Z,3.57
2018-06-24T11:56:10.469Z,2.57
2018-06-24T11:58:38.736Z,4.47
2018-06-24T12:01:07.020Z,6.90
2018-06-24T12:03:35.334Z,6.03
2018-06-24T12:06:03.740Z,4.43
2018-06-24T12:08:32.025Z,4.60
2018-06-24T12:11:00.361Z,4.17
2018-06-24T12:13:28.694Z,2.77
2018-06-24T12:15:56.976Z,4.63
2018-06-24T12:18:25.238Z,7.13
2018-06-24T12:20:53.488Z,4.67
2018-06-24T12:23:21.760Z,3.67
2018-06-24T12:25:50.013Z,3.57
2018-06-24T12:28:18.278Z,4.50
2018-06-24T12:30:46.617Z,3.67
2018-06-24T12:33:14.856Z,6.67
2018-06-24T12:35:43.878Z,4.20
2018-06-24T12:38:12.109Z,4.57
2018-06-24T12:40:40.424Z,8.37
2018-06-24T12:43:08.693Z,4.17
2018-06-24T12:45:36.984Z,4.37
2018-06-24T12:48:05.434Z,4.47
2018-06-24T12:50:33.707Z,8.00
2018-06-24T12:53:02.063Z,4.63
2018-06-24T12:55:31.548Z,6.23
2018-06-24T12:57:59.786Z,3.77
2018-06-24T13:00:28.676Z,3.43
2018-06-24T13:02:56.529Z,5.27
2018-06-24T13:05:24.891Z,4.93
2018-06-24T13:07:53.249Z,5.07
2018-06-24T13:10:21.679Z,2.27
2018-06-24T13:12:50.396Z,4.47
2018-06-24T13:15:18.751Z,7.00
2018-06-24T13:17:47.077Z,8.47
2018-06-24T13:20:15.449Z,7.10
2018-06-24T13:22:43.863Z,4.73
2018-06-24T13:25:12.445Z,5.43
2018-06-24T13:27:40.797Z,6.50
2018-06-24T13:30:09.189Z,4.27
2018-06-24T13:32:37.512Z,2.20
2018-06-24T13:35:05.838Z,4.97
2018-06-24T13:37:34.252Z,5.87
2018-06-24T13:40:05.002Z,6.40
2018-06-24T13:42:33.250Z,4.77
2018-06-24T13:45:01.625Z,11.37
2018-06-24T13:47:29.893Z,11.47
2018-06-24T13:49:58.160Z,10.70
2018-06-24T13:52:26.465Z,7.97
2018-06-24T13:54:54.726Z,5.20
2018-06-24T13:57:22.973Z,3.23
2018-06-24T13:59:51.285Z,5.53
2018-06-24T14:02:19.608Z,4.87
2018-06-24T14:04:47.851Z,4.33
2018-06-24T14:07:16.090Z,4.20
2018-06-24T14:09:44.432Z,4.83
2018-06-24T14:12:12.748Z,7.90
2018-06-24T14:14:41.157Z,3.03
2018-06-24T14:17:09.436Z,4.20
2018-06-24T14:19:37.860Z,6.63
2018-06-24T14:22:06.213Z,6.50
2018-06-24T14:24:34.546Z,4.43
2018-06-24T14:27:03.039Z,4.93
2018-06-24T14:29:31.351Z,10.60
2018-06-24T14:31:59.609Z,7.60
2018-06-24T14:34:27.865Z,5.43
2018-06-24T14:36:57.102Z,3.33
2018-06-24T14:39:25.346Z,5.63
2018-06-24T14:41:53.553Z,5.10
2018-06-24T14:44:21.936Z,6.73
2018-06-24T14:46:50.275Z,7.93
2018-06-24T14:49:18.589Z,7.73
2018-06-24T14:51:47.097Z,4.43
2018-06-24T14:54:15.766Z,4.67
2018-06-24T14:56:44.137Z,5.33
2018-06-24T14:59:12.435Z,4.13
2018-06-24T15:01:40.776Z,8.43
2018-06-24T15:04:09.129Z,9.73
2018-06-24T15:06:37.555Z,7.00
2018-06-24T15:09:08.092Z,8.27
2018-06-24T15:11:37.592Z,5.90
2018-06-24T15:14:06.229Z,6.30
2018-06-24T15:16:34.885Z,6.40
2018-06-24T15:19:03.241Z,6.67
2018-06-24T15:21:31.518Z,7.40
2018-06-24T15:23:59.855Z,4.57
2018-06-24T15:26:28.153Z,7.60
2018-06-24T15:28:56.453Z,4.87
2018-06-24T15:31:25.049Z,6.10
2018-06-24T15:33:53.356Z,4.00
2018-06-24T15:36:21.745Z,5.40
2018-06-24T15:38:50.081Z,5.77
2018-06-24T15:41:18.397Z,4.67
2018-06-24T15:43:46.667Z,3.03
2018-06-24T15:46:15.013Z,4.87
2018-06-24T15:48:46.184Z,8.27
2018-06-24T15:51:17.982Z,4.63
2018-06-24T15:53:46.523Z,4.20
2018-06-24T15:56:14.885Z,4.07
2018-06-24T15:58:43.180Z,3.63
2018-06-24T16:01:11.537Z,4.47
2018-06-24T16:03:39.920Z,6.90
2018-06-24T16:06:08.237Z,5.50
2018-06-24T16:08:37.206Z,6.37
2018-06-24T16:11:05.792Z,5.23
2018-06-24T16:13:34.483Z,4.37
2018-06-24T16:16:02.874Z,3.80
2018-06-24T16:18:31.377Z,3.97
2018-06-24T16:21:01.162Z,4.27
2018-06-24T16:23:29.818Z,3.87
2018-06-24T16:25:58.335Z,5.13
2018-06-24T16:28:27.160Z,5.93
2018-06-24T16:30:56.666Z,6.50
2018-06-24T16:33:25.127Z,7.90
2018-06-24T16:35:53.583Z,6.40
2018-06-24T16:38:22.008Z,5.47
2018-06-24T16:40:51.047Z,4.43
2018-06-24T16:43:19.386Z,5.30
2018-06-24T16:45:47.985Z,4.63
2018-06-24T16:48:17.083Z,3.20
2018-06-24T16:50:45.707Z,3.17
2018-06-24T16:53:14.157Z,4.10
2018-06-24T16:55:42.657Z,5.63
2018-06-24T16:58:11.693Z,6.70
2018-06-24T17:00:39.937Z,4.07
2018-06-24T17:03:08.221Z,6.13
2018-06-24T17:05:36.505Z,5.40
2018-06-24T17:08:04.869Z,4.27
2018-06-24T17:10:33.186Z,4.10
2018-06-24T17:13:01.578Z,5.50
2018-06-24T17:15:29.853Z,4.40
2018-06-24T17:17:58.109Z,4.43
2018-06-24T17:20:26.448Z,3.70
2018-06-24T17:22:54.961Z,4.73
2018-06-24T17:25:23.317Z,6.23
2018-06-24T17:27:51.580Z,4.90
2018-06-24T17:30:19.809Z,7.00
2018-06-24T17:32:48.181Z,6.20
2018-06-24T17:35:16.481Z,3.57
2018-06-24T17:37:44.841Z,3.87
2018-06-24T17:40:13.080Z,3.53
2018-06-24T17:42:41.317Z,5.07
2018-06-24T17:45:09.705Z,2.87
2018-06-24T17:47:38.230Z,3.50
2018-06-24T17:50:06.381Z,3.37
2018-06-24T17:52:34.609Z,2.60
2018-06-24T17:55:02.808Z,6.30
2018-06-24T17:57:31.060Z,7.13
2018-06-24T17:59:59.961Z,3.77
2018-06-24T18:02:28.217Z,4.47
2018-06-24T18:04:56.492Z,4.63
2018-06-24T18:07:24.824Z,3.53
2018-06-24T18:09:53.120Z,6.10
2018-06-24T18:12:21.453Z,6.03
2018-06-24T18:14:49.725Z,4.27
2018-06-24T18:17:17.981Z,5.17
2018-06-24T18:19:46.204Z,5.10
2018-06-24T18:22:14.440Z,5.63
2018-06-24T18:24:42.697Z,4.00
2018-06-24T18:27:10.969Z,5.73
2018-06-24T18:29:39.271Z,5.97
2018-06-24T18:32:07.518Z,4.67
2018-06-24T18:34:35.748Z,6.30
2018-06-24T18:37:04.125Z,5.37
2018-06-24T18:39:32.404Z,6.20
2018-06-24T18:42:00.626Z,7.53
2018-06-24T18:44:28.881Z,4.80
2018-06-24T18:46:57.093Z,3.40
2018-06-24T18:49:25.391Z,3.43
2018-06-24T18:51:53.609Z,7.57
2018-06-24T18:54:22.034Z,6.23
2018-06-24T18:56:50.310Z,5.73
2018-06-24T18:59:18.657Z,4.67
2018-06-24T19:01:46.994Z,5.33
2018-06-24T19:04:15.209Z,5.13
2018-06-24T19:06:43.417Z,3.83
2018-06-24T19:09:13.312Z,3.17
2018-06-24T19:11:41.960Z,3.70
2018-06-24T19:14:10.240Z,3.00
2018-06-24T19:16:39.120Z,4.90
2018-06-24T19:19:07.421Z,4.10
2018-06-24T19:21:35.644Z,5.07
2018-06-24T19:24:03.989Z,2.77
2018-06-24T19:26:32.252Z,3.93
2018-06-24T19:29:00.641Z,3.73
2018-06-24T19:31:28.894Z,2.70
2018-06-24T19:33:57.125Z,3.67
2018-06-24T19:36:25.341Z,2.60
2018-06-24T19:38:53.869Z,4.47
2018-06-24T19:41:22.136Z,3.40
2018-06-24T19:43:50.400Z,4.37
2018-06-24T19:46:18.632Z,5.10
2018-06-24T19:48:46.864Z,3.67
2018-06-24T19:51:15.093Z,3.63
2018-06-24T19:53:43.333Z,6.00
2018-06-24T19:56:11.565Z,3.67
2018-06-24T19:58:39.777Z,3.67
2018-06-24T20:01:08.021Z,3.57
2018-06-24T20:03:36.280Z,3.43
2018-06-24T20:06:04.564Z,6.90
2018-06-24T20:08:32.792Z,4.47
2018-06-24T20:11:01.061Z,4.60
2018-06-24T20:13:29.314Z,3.83
2018-06-24T20:15:57.506Z,6.03
2018-06-24T20:18:25.746Z,4.87
2018-06-24T20:20:53.977Z,5.10
2018-06-24T20:23:22.177Z,3.37
2018-06-24T20:25:50.505Z,3.53
2018-06-24T20:28:18.777Z,4.47
2018-06-24T20:30:46.992Z,3.40
2018-06-24T20:33:15.190Z,3.87
2018-06-24T20:35:43.477Z,4.07
2018-06-24T20:38:11.753Z,4.37
2018-06-24T20:40:40.077Z,5.20
2018-06-24T20:43:08.301Z,6.10
2018-06-24T20:45:36.507Z,4.60
2018-06-24T20:48:04.921Z,5.00
2018-06-24T20:50:33.169Z,4.47
2018-06-24T20:53:01.418Z,4.03
2018-06-24T20:55:29.657Z,6.57
2018-06-24T20:57:57.880Z,4.87
2018-06-24T21:00:26.085Z,11.30
2018-06-24T21:02:54.344Z,5.53
2018-06-24T21:05:22.574Z,5.23
2018-06-24T21:07:50.855Z,7.03
2018-06-24T21:10:19.065Z,5.97
2018-06-24T21:12:47.265Z,5.00
2018-06-24T21:15:15.481Z,5.20
2018-06-24T21:17:43.716Z,5.33
2018-06-24T21:20:11.945Z,5.70
2018-06-24T21:22:40.277Z,6.23
2018-06-24T21:25:08.539Z,6.83
2018-06-24T21:27:36.828Z,6.23
2018-06-24T21:30:05.268Z,6.03
2018-06-24T21:32:33.516Z,7.17
2018-06-24T21:35:01.744Z,7.87
2018-06-24T21:37:29.993Z,5.23
2018-06-24T21:39:58.213Z,6.63
2018-06-24T21:42:26.486Z,5.27
2018-06-24T21:44:54.754Z,4.53
2018-06-24T21:47:22.980Z,4.93
2018-06-24T21:49:51.431Z,5.63
2018-06-24T21:52:19.640Z,8.00
2018-06-24T21:54:47.861Z,7.53
2018-06-24T21:57:16.093Z,5.43
2018-06-24T21:59:44.316Z,7.23
2018-06-24T22:02:12.597Z,6.03
2018-06-24T22:04:40.772Z,6.87
2018-06-24T22:07:09.036Z,7.00
2018-06-24T22:09:37.273Z,4.23
2018-06-24T22:12:05.597Z,4.70
2018-06-24T22:14:33.814Z,4.70
2018-06-24T22:17:02.025Z,6.60
2018-06-24T22:19:30.284Z,4.80
2018-06-24T22:21:58.571Z,5.40
2018-06-24T22:24:27.018Z,5.67
2018-06-24T22:26:55.229Z,5.00
2018-06-24T22:29:23.435Z,5.57
2018-06-24T22:31:51.674Z,7.83
2018-06-24T22:34:19.924Z,9.00
2018-06-24T22:36:48.154Z,10.37
2018-06-24T22:39:16.382Z,8.90
2018-06-24T22:41:44.585Z,10.97
2018-06-24T22:44:12.825Z,8.77
2018-06-24T22:46:41.073Z,10.97
2018-06-24T22:49:09.293Z,9.57
2018-06-24T22:51:37.573Z,10.47
2018-06-24T22:54:06.041Z,10.57
2018-06-24T22:56:34.268Z,10.60
2018-06-24T22:59:13.896Z,8.30
2018-06-24T23:01:42.152Z,9.20
2018-06-24T23:04:10.381Z,10.20
2018-06-24T23:06:38.645Z,9.03
2018-06-24T23:09:07.993Z,10.37
2018-06-24T23:11:36.223Z,8.57
2018-06-24T23:14:04.487Z,9.00
2018-06-24T23:16:32.748Z,8.30
2018-06-24T23:19:00.956Z,10.07
2018-06-24T23:21:29.187Z,8.07
2018-06-24T23:23:57.550Z,8.97
2018-06-24T23:26:25.773Z,8.27
2018-06-24T23:28:53.998Z,8.23
2018-06-24T23:31:22.229Z,6.97
2018-06-24T23:33:50.505Z,6.27
2018-06-24T23:36:18.800Z,6.67
2018-06-24T23:38:47.009Z,7.17
2018-06-24T23:41:15.236Z,7.90
2018-06-24T23:43:43.690Z,9.37
2018-06-24T23:46:11.924Z,8.70
2018-06-24T23:48:40.216Z,11.67
2018-06-24T23:51:08.520Z,11.27
2018-06-24T23:53:36.733Z,11.40
2018-06-24T23:56:04.944Z,12.50
2018-06-24T23:58:33.160Z,11.07
